createdAt,value
2023-05-21T00:01:19.332Z,19.88
2023-05-21T00:02:49.241Z,19.74
2023-05-21T00:04:13.060Z,19.29
2023-05-21T00:05:49.156Z,18.80
2023-05-21T00:07:23.488Z,18.23
2023-05-21T00:08:45.228Z,17.88
2023-05-21T00:10:30.230Z,17.55
2023-05-21T00:12:05.675Z,17.29
2023-05-21T00:13:39.276Z,17.02
2023-05-21T00:15:15.106Z,16.84
2023-05-21T00:16:44.879Z,16.71
2023-05-21T00:18:18.276Z,17.43
2023-05-21T00:19:49.588Z,18.53
2023-05-21T00:21:42.868Z,19.43
2023-05-21T00:23:18.650Z,19.28
2023-05-21T00:24:54.313Z,18.76
2023-05-21T00:26:39.591Z,18.23
2023-05-21T00:28:12.808Z,17.77
2023-05-21T00:29:37.216Z,17.46
2023-05-21T00:31:10.613Z,17.19
2023-05-21T00:32:46.621Z,16.94
2023-05-21T00:34:08.497Z,16.76
2023-05-21T00:35:38.322Z,16.58
2023-05-21T00:37:02.730Z,16.56
2023-05-21T00:38:39.487Z,17.23
2023-05-21T00:40:25.299Z,18.55
2023-05-21T00:42:00.387Z,19.29
2023-05-21T00:43:26.165Z,19.07
2023-05-21T00:44:58.238Z,18.60
2023-05-21T00:46:31.688Z,18.03
2023-05-21T00:48:04.339Z,17.67
2023-05-21T00:49:38.282Z,17.28
2023-05-21T00:51:11.589Z,16.99
2023-05-21T00:52:58.561Z,16.77
2023-05-21T00:54:20.730Z,16.54
2023-05-21T00:55:55.925Z,16.38
2023-05-21T00:57:31.512Z,16.88
2023-05-21T00:59:22.004Z,17.93
2023-05-21T01:00:59.230Z,19.04
2023-05-21T01:02:34.607Z,19.01
2023-05-21T01:04:29.012Z,18.50
2023-05-21T01:06:02.374Z,17.87
2023-05-21T01:07:34.160Z,17.49
2023-05-21T01:09:18.978Z,17.13
2023-05-21T01:11:04.003Z,16.79
2023-05-21T01:12:48.737Z,16.52
2023-05-21T01:14:22.332Z,16.31
2023-05-21T01:15:59.133Z,16.34
2023-05-21T01:17:24.284Z,17.13
2023-05-21T01:19:05.492Z,18.31
2023-05-21T01:20:43.652Z,19.04
2023-05-21T01:22:19.326Z,18.79
2023-05-21T01:23:55.681Z,18.25
2023-05-21T01:25:28.990Z,17.71
2023-05-21T01:27:17.623Z,17.31
2023-05-21T01:29:03.557Z,16.90
2023-05-21T01:30:59.027Z,16.58
2023-05-21T01:32:35.039Z,16.29
2023-05-21T01:34:08.847Z,16.10
2023-05-21T01:35:43.049Z,16.29
2023-05-21T01:37:12.605Z,17.30
2023-05-21T01:38:34.726Z,18.39
2023-05-21T01:39:56.591Z,18.89
2023-05-21T01:41:32.435Z,18.63
2023-05-21T01:43:19.743Z,18.06
2023-05-21T01:44:53.101Z,17.53
2023-05-21T01:46:33.853Z,17.07
2023-05-21T01:48:09.622Z,16.72
2023-05-21T01:49:41.056Z,16.40
2023-05-21T01:51:26.194Z,16.15
2023-05-21T01:53:14.944Z,15.92
2023-05-21T01:55:06.905Z,16.42
2023-05-21T01:56:45.392Z,17.63
2023-05-21T01:58:22.150Z,18.64
2023-05-21T01:59:55.919Z,18.65
2023-05-21T02:01:30.359Z,18.06
2023-05-21T02:03:06.551Z,17.53
2023-05-21T02:05:00.069Z,17.07
2023-05-21T02:06:45.171Z,16.63
2023-05-21T02:08:31.573Z,16.30
2023-05-21T02:10:01.181Z,16.02
2023-05-21T02:11:32.170Z,15.82
2023-05-21T02:13:05.473Z,15.85
2023-05-21T02:14:39.286Z,16.84
2023-05-21T02:16:26.461Z,17.96
2023-05-21T02:18:07.188Z,18.56
2023-05-21T02:19:45.682Z,18.16
2023-05-21T02:21:30.674Z,17.59
2023-05-21T02:23:20.079Z,17.06
2023-05-21T02:25:00.560Z,16.61
2023-05-21T02:26:36.615Z,16.30
2023-05-21T02:28:11.658Z,16.03
2023-05-21T02:29:44.762Z,15.77
2023-05-21T02:31:22.049Z,15.61
2023-05-21T02:32:55.489Z,16.25
2023-05-21T02:34:43.871Z,17.38
2023-05-21T02:36:08.783Z,18.30
2023-05-21T02:37:49.427Z,18.25
2023-05-21T02:39:20.722Z,17.75
2023-05-21T02:41:08.212Z,17.19
2023-05-21T02:42:42.016Z,16.70
2023-05-21T02:44:23.953Z,16.34
2023-05-21T02:46:06.938Z,16.07
2023-05-21T02:47:42.750Z,15.79
2023-05-21T02:49:17.583Z,15.57
2023-05-21T02:50:58.649Z,15.36
2023-05-21T02:52:28.043Z,15.78
2023-05-21T02:54:04.592Z,16.82
2023-05-21T02:55:38.278Z,17.87
2023-05-21T02:57:12.094Z,18.16
2023-05-21T02:58:46.323Z,17.70
2023-05-21T03:00:19.370Z,17.19
2023-05-21T03:02:05.565Z,16.73
2023-05-21T03:03:41.688Z,16.31
2023-05-21T03:05:15.361Z,16.00
2023-05-21T03:07:00.885Z,15.75
2023-05-21T03:08:34.618Z,15.54
2023-05-21T03:10:10.046Z,15.33
2023-05-21T03:11:45.517Z,15.16
2023-05-21T03:13:31.292Z,15.50
2023-05-21T03:15:11.543Z,16.73
2023-05-21T03:16:53.440Z,17.82
2023-05-21T03:18:36.039Z,17.98
2023-05-21T03:20:21.085Z,17.45
2023-05-21T03:21:55.973Z,16.95
2023-05-21T03:23:30.076Z,16.47
2023-05-21T03:25:07.281Z,16.17
2023-05-21T03:26:52.459Z,15.85
2023-05-21T03:28:37.807Z,15.60
2023-05-21T03:30:19.435Z,15.40
2023-05-21T03:32:09.508Z,15.21
2023-05-21T03:33:45.772Z,15.53
2023-05-21T03:35:37.078Z,16.77
2023-05-21T03:37:01.665Z,17.82
2023-05-21T03:38:37.118Z,18.06
2023-05-21T03:40:24.432Z,17.63
2023-05-21T03:42:12.338Z,17.07
2023-05-21T03:43:42.513Z,16.60
2023-05-21T03:45:12.144Z,16.26
2023-05-21T03:47:35.604Z,15.89
2023-05-21T03:49:02.777Z,15.67
2023-05-21T03:50:48.343Z,15.48
2023-05-21T03:52:39.046Z,15.30
2023-05-21T03:54:12.178Z,15.63
2023-05-21T03:56:00.074Z,16.72
2023-05-21T03:57:45.443Z,17.97
2023-05-21T03:59:33.885Z,18.10
2023-05-21T04:01:22.488Z,17.59
2023-05-21T04:02:54.694Z,17.07
2023-05-21T04:04:29.538Z,16.66
2023-05-21T04:06:02.798Z,16.34
2023-05-21T04:07:49.928Z,16.07
2023-05-21T04:09:31.167Z,15.83
2023-05-21T04:11:16.321Z,15.64
2023-05-21T04:12:57.495Z,15.46
2023-05-21T04:14:33.335Z,15.33
2023-05-21T04:16:10.548Z,15.20
2023-05-21T04:17:45.363Z,15.64
2023-05-21T04:19:21.544Z,16.82
2023-05-21T04:20:48.540Z,17.89
2023-05-21T04:22:35.049Z,18.24
2023-05-21T04:23:59.940Z,17.90
2023-05-21T04:25:57.601Z,17.40
2023-05-21T04:27:43.083Z,16.94
2023-05-21T04:29:16.743Z,16.65
2023-05-21T04:30:50.411Z,16.42
2023-05-21T04:32:26.099Z,16.21
2023-05-21T04:34:11.243Z,16.06
2023-05-21T04:35:45.002Z,15.91
2023-05-21T04:37:39.139Z,15.81
2023-05-21T04:39:12.532Z,15.69
2023-05-21T04:40:45.696Z,15.61
2023-05-21T04:42:27.602Z,15.54
2023-05-21T04:44:13.888Z,15.46
2023-05-21T04:45:49.367Z,15.39
2023-05-21T04:47:23.097Z,15.36
2023-05-21T04:49:07.914Z,15.97
2023-05-21T04:50:45.422Z,17.25
2023-05-21T04:52:19.125Z,18.35
2023-05-21T04:53:55.716Z,18.49
2023-05-21T04:55:41.155Z,18.08
2023-05-21T04:57:26.324Z,17.64
2023-05-21T04:59:07.489Z,17.29
2023-05-21T05:00:40.916Z,17.04
2023-05-21T05:02:09.964Z,16.85
2023-05-21T05:03:55.379Z,16.69
2023-05-21T05:05:17.087Z,16.57
2023-05-21T05:06:38.797Z,16.48
2023-05-21T05:08:16.074Z,16.39
2023-05-21T05:10:01.008Z,16.32
2023-05-21T05:11:41.772Z,16.25
2023-05-21T05:13:19.420Z,16.20
2023-05-21T05:15:02.063Z,16.16
2023-05-21T05:16:26.292Z,16.13
2023-05-21T05:17:56.484Z,16.11
2023-05-21T05:19:32.913Z,16.10
2023-05-21T05:20:55.109Z,16.09
2023-05-21T05:22:40.405Z,16.07
2023-05-21T05:24:25.720Z,16.06
2023-05-21T05:25:59.332Z,16.05
2023-05-21T05:27:42.557Z,16.07
2023-05-21T05:29:36.242Z,16.07
2023-05-21T05:33:37.048Z,16.11
2023-05-21T05:35:10.767Z,16.14
2023-05-21T05:36:57.804Z,16.16
2023-05-21T05:38:43.157Z,16.18
2023-05-21T05:40:19.340Z,16.21
2023-05-21T05:42:14.225Z,16.24
2023-05-21T05:43:43.885Z,16.28
2023-05-21T05:45:30.079Z,16.32
2023-05-21T05:47:15.628Z,16.37
2023-05-21T05:48:51.404Z,16.41
2023-05-21T05:50:35.476Z,16.45
2023-05-21T05:52:25.073Z,16.50
2023-05-21T05:53:49.433Z,16.55
2023-05-21T05:55:25.115Z,16.60
2023-05-21T05:57:18.840Z,16.64
2023-05-21T05:59:04.226Z,16.69
2023-05-21T06:00:36.483Z,16.73
2023-05-21T06:02:02.035Z,16.77
2023-05-21T06:03:47.367Z,16.82
2023-05-21T06:05:23.980Z,16.88
2023-05-21T06:06:59.881Z,16.93
2023-05-21T06:08:37.354Z,17.00
2023-05-21T06:10:26.124Z,17.07
2023-05-21T06:12:01.746Z,17.14
2023-05-21T06:13:35.656Z,17.22
2023-05-21T06:15:20.736Z,17.29
2023-05-21T06:16:53.883Z,17.37
2023-05-21T06:18:32.293Z,17.43
2023-05-21T06:20:17.623Z,17.50
2023-05-21T06:21:51.424Z,17.57
2023-05-21T06:23:32.501Z,17.65
2023-05-21T06:25:08.265Z,17.73
2023-05-21T06:26:42.456Z,17.80
2023-05-21T06:28:15.908Z,17.88
2023-05-21T06:29:58.091Z,17.95
2023-05-21T06:31:22.363Z,18.03
2023-05-21T06:33:13.809Z,18.11
2023-05-21T06:34:45.331Z,18.20
2023-05-21T06:36:19.069Z,18.27
2023-05-21T06:37:52.622Z,18.36
2023-05-21T06:39:27.148Z,18.46
2023-05-21T06:41:04.036Z,18.54
2023-05-21T06:43:17.124Z,18.65
2023-05-21T06:44:57.700Z,18.76
2023-05-21T06:46:31.488Z,18.84
2023-05-21T06:48:04.346Z,18.93
2023-05-21T06:49:40.151Z,19.00
2023-05-21T06:51:15.984Z,19.09
2023-05-21T06:52:51.664Z,19.16
2023-05-21T06:54:26.933Z,19.25
2023-05-21T06:56:01.008Z,19.32
2023-05-21T06:57:54.776Z,19.40
2023-05-21T06:59:16.421Z,19.46
2023-05-21T07:00:57.944Z,19.51
2023-05-21T07:02:40.622Z,19.56
2023-05-21T07:04:13.936Z,19.61
2023-05-21T07:05:50.000Z,19.68
2023-05-21T07:07:27.574Z,19.73
2023-05-21T07:09:03.382Z,19.80
2023-05-21T07:10:39.391Z,19.86
2023-05-21T07:12:12.595Z,19.93
2023-05-21T07:13:57.693Z,19.98
2023-05-21T07:15:31.425Z,20.04
2023-05-21T07:17:12.214Z,20.11
2023-05-21T07:18:48.134Z,20.17
2023-05-21T07:20:21.347Z,20.22
2023-05-21T07:22:02.389Z,20.26
2023-05-21T07:23:47.703Z,20.30
2023-05-21T07:25:26.748Z,20.34
2023-05-21T07:26:55.389Z,20.38
2023-05-21T07:28:29.148Z,20.42
2023-05-21T07:30:04.962Z,20.47
2023-05-21T07:31:38.549Z,20.51
2023-05-21T07:33:24.340Z,20.57
2023-05-21T07:34:48.236Z,20.62
2023-05-21T07:36:12.901Z,20.67
2023-05-21T07:37:58.247Z,20.72
2023-05-21T07:39:31.461Z,20.77
2023-05-21T07:41:12.518Z,20.83
2023-05-21T07:42:58.610Z,20.88
2023-05-21T07:44:34.307Z,20.94
2023-05-21T07:45:59.374Z,21.00
2023-05-21T07:47:44.540Z,21.07
2023-05-21T07:49:16.319Z,21.13
2023-05-21T07:50:54.835Z,21.20
2023-05-21T07:52:28.444Z,21.25
2023-05-21T07:54:02.056Z,21.27
2023-05-21T07:55:50.645Z,21.27
2023-05-21T07:57:18.397Z,21.27
2023-05-21T07:58:59.513Z,21.30
2023-05-21T08:00:40.783Z,21.33
2023-05-21T08:02:26.095Z,21.36
2023-05-21T08:04:07.209Z,21.40
2023-05-21T08:05:57.458Z,21.43
2023-05-21T08:07:32.092Z,21.46
2023-05-21T08:09:13.360Z,21.50
2023-05-21T08:10:47.792Z,21.55
2023-05-21T08:12:18.707Z,21.60
2023-05-21T08:13:53.762Z,21.65
2023-05-21T08:15:38.781Z,21.72
2023-05-21T08:17:14.803Z,21.78
2023-05-21T08:18:48.329Z,21.85
2023-05-21T08:20:33.419Z,21.92
2023-05-21T08:22:06.837Z,21.98
2023-05-21T08:23:31.957Z,22.02
2023-05-21T08:25:17.577Z,22.06
2023-05-21T08:26:53.593Z,22.10
2023-05-21T08:28:29.303Z,22.13
2023-05-21T08:30:05.094Z,22.16
2023-05-21T08:31:50.996Z,22.17
2023-05-21T08:33:31.906Z,22.16
2023-05-21T08:34:56.383Z,22.16
2023-05-21T08:37:10.908Z,22.19
2023-05-21T08:39:27.936Z,22.25
2023-05-21T08:41:11.092Z,22.32
2023-05-21T08:43:00.049Z,22.39
2023-05-21T08:44:50.224Z,22.44
2023-05-21T08:46:36.524Z,22.49
2023-05-21T08:48:21.409Z,22.54
2023-05-21T08:49:57.333Z,22.59
2023-05-21T08:51:39.429Z,22.64
2023-05-21T08:53:28.325Z,22.71
2023-05-21T08:55:15.325Z,22.78
2023-05-21T08:56:49.216Z,22.84
2023-05-21T08:58:13.588Z,22.88
2023-05-21T08:59:43.155Z,22.93
2023-05-21T09:01:19.295Z,22.98
2023-05-21T09:02:50.004Z,23.02
2023-05-21T09:04:35.600Z,23.06
2023-05-21T09:06:23.870Z,23.13
2023-05-21T09:08:09.030Z,23.20
2023-05-21T09:10:05.059Z,23.29
2023-05-21T09:11:46.701Z,23.33
2023-05-21T09:13:22.117Z,23.34
2023-05-21T09:15:02.604Z,23.36
2023-05-21T09:18:35.051Z,23.43
2023-05-21T09:20:23.374Z,23.47
2023-05-21T09:21:55.201Z,23.53
2023-05-21T09:23:32.997Z,23.57
2023-05-21T09:25:07.950Z,23.61
2023-05-21T09:26:44.184Z,23.64
2023-05-21T09:28:29.227Z,23.70
2023-05-21T09:29:58.411Z,23.78
2023-05-21T09:31:31.916Z,23.84
2023-05-21T09:33:04.678Z,23.91
2023-05-21T09:34:33.962Z,23.96
2023-05-21T09:35:55.722Z,24.00
2023-05-21T09:37:32.226Z,24.04
2023-05-21T09:39:07.758Z,24.07
2023-05-21T09:40:39.976Z,24.13
2023-05-21T09:42:25.196Z,24.20
2023-05-21T09:43:57.268Z,24.25
2023-05-21T09:45:33.342Z,24.32
2023-05-21T09:47:06.752Z,24.36
2023-05-21T09:48:41.850Z,24.42
2023-05-21T09:50:22.199Z,24.47
2023-05-21T09:51:55.513Z,24.53
2023-05-21T09:53:17.304Z,24.60
2023-05-21T09:54:57.987Z,24.68
2023-05-21T09:56:22.424Z,24.77
2023-05-21T09:57:50.608Z,24.86
2023-05-21T09:59:31.713Z,24.95
2023-05-21T10:01:17.746Z,25.02
2023-05-21T10:02:50.938Z,25.07
2023-05-21T10:04:35.899Z,25.09
2023-05-21T10:06:11.788Z,25.10
2023-05-21T10:07:44.946Z,25.07
2023-05-21T10:09:30.053Z,25.03
2023-05-21T10:11:03.740Z,25.00
2023-05-21T10:12:37.140Z,24.98
2023-05-21T10:14:22.337Z,24.92
2023-05-21T10:15:58.177Z,24.84
2023-05-21T10:17:31.696Z,24.76
2023-05-21T10:19:16.845Z,24.72
2023-05-21T10:20:50.210Z,24.68
2023-05-21T10:22:25.710Z,24.66
2023-05-21T10:24:01.934Z,24.59
2023-05-21T10:25:35.763Z,24.54
2023-05-21T10:27:11.283Z,24.53
2023-05-21T10:28:45.567Z,24.53
2023-05-21T10:30:22.062Z,24.57
2023-05-21T10:31:55.882Z,24.62
2023-05-21T10:33:29.146Z,24.65
2023-05-21T10:34:55.704Z,24.66
2023-05-21T10:36:25.223Z,24.68
2023-05-21T10:37:49.631Z,24.70
2023-05-21T10:39:34.529Z,24.72
2023-05-21T10:41:04.968Z,24.74
2023-05-21T10:42:46.047Z,24.78
2023-05-21T10:44:31.569Z,24.83
2023-05-21T10:45:53.362Z,24.89
2023-05-21T10:47:29.146Z,24.95
2023-05-21T10:49:14.742Z,25.04
2023-05-21T10:50:56.185Z,25.09
2023-05-21T10:52:22.809Z,25.16
2023-05-21T10:53:58.874Z,25.20
2023-05-21T10:55:31.946Z,25.22
2023-05-21T10:57:05.011Z,25.24
2023-05-21T10:58:46.172Z,25.26
2023-05-21T11:00:28.614Z,25.28
2023-05-21T11:01:53.398Z,25.28
2023-05-21T11:03:20.421Z,25.31
2023-05-21T11:04:56.164Z,25.37
2023-05-21T11:06:29.932Z,25.43
2023-05-21T11:08:05.765Z,25.53
2023-05-21T11:09:50.914Z,25.63
2023-05-21T11:11:31.731Z,25.76
2023-05-21T11:13:05.951Z,25.88
2023-05-21T11:14:35.150Z,25.96
2023-05-21T11:16:11.104Z,26.09
2023-05-21T11:17:52.318Z,26.22
2023-05-21T11:19:26.040Z,26.34
2023-05-21T11:20:59.512Z,26.47
2023-05-21T11:22:25.737Z,26.55
2023-05-21T11:23:47.473Z,26.62
2023-05-21T11:25:20.805Z,26.69
2023-05-21T11:26:50.225Z,26.78
2023-05-21T11:28:11.862Z,26.85
2023-05-21T11:29:45.527Z,26.91
2023-05-21T11:31:19.516Z,27.00
2023-05-21T11:32:53.385Z,27.05
2023-05-21T11:34:29.357Z,27.11
2023-05-21T11:35:51.584Z,27.16
2023-05-21T11:39:15.703Z,27.22
2023-05-21T11:41:06.277Z,27.25
2023-05-21T11:42:42.370Z,27.20
2023-05-21T11:44:04.145Z,27.15
2023-05-21T11:45:26.282Z,27.13
2023-05-21T11:47:11.367Z,27.17
2023-05-21T11:48:46.692Z,27.22
2023-05-21T11:50:18.229Z,27.30
2023-05-21T11:51:44.468Z,27.38
2023-05-21T11:53:08.988Z,27.47
2023-05-21T11:54:45.666Z,27.57
2023-05-21T11:56:11.962Z,27.69
2023-05-21T11:57:48.063Z,27.83
2023-05-21T11:59:28.709Z,28.02
2023-05-21T12:01:13.960Z,28.19
2023-05-21T12:02:59.128Z,28.37
2023-05-21T12:04:32.502Z,28.47
2023-05-21T12:06:03.995Z,28.60
2023-05-21T12:07:44.537Z,28.71
2023-05-21T12:09:18.155Z,28.84
2023-05-21T12:10:47.380Z,28.96
2023-05-21T12:12:13.231Z,29.01
2023-05-21T12:13:49.907Z,29.03
2023-05-21T12:15:13.852Z,29.03
2023-05-21T12:16:47.368Z,29.08
2023-05-21T12:18:27.796Z,29.17
2023-05-21T12:20:13.741Z,29.22
2023-05-21T12:21:47.044Z,29.20
2023-05-21T12:23:20.336Z,29.19
2023-05-21T12:25:01.372Z,29.13
2023-05-21T12:26:37.333Z,29.07
2023-05-21T12:28:13.233Z,29.02
2023-05-21T12:29:46.383Z,29.04
2023-05-21T12:31:22.020Z,29.11
2023-05-21T12:32:58.150Z,29.22
2023-05-21T12:34:27.600Z,29.31
2023-05-21T12:36:15.029Z,29.42
2023-05-21T12:38:02.098Z,29.56
2023-05-21T12:39:37.033Z,29.68
2023-05-21T12:41:18.021Z,29.75
2023-05-21T12:42:51.857Z,29.70
2023-05-21T12:44:25.193Z,29.52
2023-05-21T12:45:47.364Z,29.41
2023-05-21T12:47:29.983Z,29.36
2023-05-21T12:49:23.728Z,29.36
2023-05-21T12:50:53.109Z,29.39
2023-05-21T12:52:27.316Z,29.44
2023-05-21T12:53:51.129Z,29.48
2023-05-21T12:55:25.589Z,29.54
2023-05-21T12:57:01.118Z,29.60
2023-05-21T12:58:37.324Z,29.66
2023-05-21T13:00:29.797Z,29.71
2023-05-21T13:01:53.734Z,29.74
2023-05-21T13:03:27.944Z,29.79
2023-05-21T13:04:51.665Z,29.88
2023-05-21T13:06:34.273Z,29.90
2023-05-21T13:08:19.137Z,29.98
2023-05-21T13:09:54.057Z,30.03
2023-05-21T13:11:34.772Z,30.10
2023-05-21T13:13:15.885Z,30.21
2023-05-21T13:14:56.619Z,30.34
2023-05-21T13:16:29.877Z,30.40
2023-05-21T13:18:12.022Z,30.35
2023-05-21T13:19:52.881Z,30.30
2023-05-21T13:21:28.643Z,30.31
2023-05-21T13:23:13.756Z,30.37
2023-05-21T13:24:40.104Z,30.47
2023-05-21T13:26:13.998Z,30.56
2023-05-21T13:27:38.021Z,30.64
2023-05-21T13:29:02.168Z,30.75
2023-05-21T13:30:43.047Z,30.89
2023-05-21T13:32:24.260Z,31.00
2023-05-21T13:34:10.106Z,31.09
2023-05-21T13:36:00.015Z,31.17
2023-05-21T13:37:45.834Z,31.29
2023-05-21T13:39:31.112Z,31.37
2023-05-21T13:41:06.988Z,31.44
2023-05-21T13:42:47.657Z,31.53
2023-05-21T13:44:09.367Z,31.53
2023-05-21T13:45:44.819Z,31.57
2023-05-21T13:47:29.976Z,31.67
2023-05-21T13:49:03.610Z,31.77
2023-05-21T13:50:52.577Z,31.85
2023-05-21T13:52:22.008Z,31.90
2023-05-21T13:53:46.116Z,31.83
2023-05-21T13:55:19.478Z,31.65
2023-05-21T13:56:55.152Z,31.32
2023-05-21T13:58:40.376Z,31.02
2023-05-21T14:00:09.891Z,30.80
2023-05-21T14:01:59.021Z,30.66
2023-05-21T14:03:44.230Z,30.67
2023-05-21T14:05:29.177Z,30.80
2023-05-21T14:06:53.533Z,30.98
2023-05-21T14:08:29.333Z,31.15
2023-05-21T14:10:02.802Z,31.27
2023-05-21T14:11:38.255Z,31.27
2023-05-21T14:13:18.464Z,31.25
2023-05-21T14:14:43.982Z,31.26
2023-05-21T14:16:28.860Z,31.34
2023-05-21T14:18:10.106Z,31.45
2023-05-21T14:19:43.812Z,31.62
2023-05-21T14:21:15.019Z,31.80
2023-05-21T14:22:46.260Z,31.93
2023-05-21T14:24:22.044Z,31.96
2023-05-21T14:26:07.222Z,32.00
2023-05-21T14:27:31.472Z,32.03
2023-05-21T14:29:18.656Z,32.00
2023-05-21T14:30:47.429Z,32.02
2023-05-21T14:32:32.500Z,32.07
2023-05-21T14:34:07.938Z,32.16
2023-05-21T14:35:32.356Z,32.22
2023-05-21T14:37:01.451Z,32.33
2023-05-21T14:38:28.997Z,32.46
2023-05-21T14:40:14.251Z,32.51
2023-05-21T14:41:43.415Z,32.54
2023-05-21T14:43:25.153Z,32.55
2023-05-21T14:45:18.647Z,32.54
2023-05-21T14:47:10.013Z,32.56
2023-05-21T14:48:55.807Z,32.55
2023-05-21T14:50:36.810Z,32.49
2023-05-21T14:52:01.155Z,32.43
2023-05-21T14:53:37.106Z,32.38
2023-05-21T14:55:25.682Z,32.26
2023-05-21T14:56:50.297Z,32.14
2023-05-21T14:58:14.953Z,32.05
2023-05-21T14:59:51.183Z,31.97
2023-05-21T15:01:28.299Z,31.96
2023-05-21T15:03:13.620Z,31.98
2023-05-21T15:04:59.024Z,32.03
2023-05-21T15:06:44.333Z,32.04
2023-05-21T15:08:19.619Z,32.05
2023-05-21T15:09:56.293Z,32.05
2023-05-21T15:11:22.632Z,32.03
2023-05-21T15:12:56.286Z,31.94
2023-05-21T15:14:20.773Z,31.91
2023-05-21T15:15:56.761Z,31.91
2023-05-21T15:17:30.098Z,31.98
2023-05-21T15:19:03.834Z,32.12
2023-05-21T15:20:44.608Z,32.32
2023-05-21T15:22:28.027Z,32.49
2023-05-21T15:23:51.543Z,32.63
2023-05-21T15:25:34.134Z,32.75
2023-05-21T15:27:21.153Z,32.92
2023-05-21T15:29:15.021Z,33.04
2023-05-21T15:30:39.271Z,33.20
2023-05-21T15:32:14.961Z,33.31
2023-05-21T15:34:05.031Z,33.40
2023-05-21T15:35:50.257Z,33.48
2023-05-21T15:37:33.074Z,33.48
2023-05-21T15:39:03.568Z,33.45
2023-05-21T15:40:49.539Z,33.40
2023-05-21T15:42:16.204Z,33.38
2023-05-21T15:43:40.485Z,33.33
2023-05-21T15:45:10.032Z,33.28
2023-05-21T15:46:46.085Z,33.19
2023-05-21T15:48:22.517Z,33.01
2023-05-21T15:50:07.520Z,32.69
2023-05-21T15:51:48.403Z,32.37
2023-05-21T15:53:10.652Z,32.10
2023-05-21T15:54:44.345Z,31.87
2023-05-21T15:56:17.543Z,31.66
2023-05-21T15:57:39.732Z,31.40
2023-05-21T15:59:28.592Z,31.08
2023-05-21T16:01:04.748Z,30.71
2023-05-21T16:02:46.619Z,30.41
2023-05-21T16:04:19.985Z,30.07
2023-05-21T16:05:53.721Z,29.65
2023-05-21T16:07:24.781Z,29.34
2023-05-21T16:09:13.155Z,29.03
2023-05-21T16:10:49.691Z,28.74
2023-05-21T16:12:18.871Z,28.44
2023-05-21T16:13:40.685Z,28.20
2023-05-21T16:15:02.754Z,28.00
2023-05-21T16:16:36.713Z,27.78
2023-05-21T16:18:08.140Z,27.56
2023-05-21T16:19:29.724Z,27.38
2023-05-21T16:20:54.137Z,27.20
2023-05-21T16:22:20.186Z,27.03
2023-05-21T16:23:53.854Z,26.87
2023-05-21T16:25:20.919Z,26.72
2023-05-21T16:27:05.716Z,26.56
2023-05-21T16:28:46.578Z,26.37
2023-05-21T16:30:27.413Z,26.18
2023-05-21T16:32:03.206Z,25.96
2023-05-21T16:33:48.106Z,25.79
2023-05-21T16:35:33.164Z,25.60
2023-05-21T16:37:09.252Z,25.41
2023-05-21T16:38:31.281Z,25.28
2023-05-21T16:40:04.999Z,25.12
2023-05-21T16:41:55.087Z,24.98
2023-05-21T16:43:35.677Z,24.80
2023-05-21T16:45:20.839Z,24.63
2023-05-21T16:46:56.461Z,24.47
2023-05-21T16:48:29.775Z,24.37
2023-05-21T16:50:10.572Z,24.24
2023-05-21T16:51:32.297Z,24.11
2023-05-21T16:53:07.510Z,24.00
2023-05-21T16:54:52.474Z,23.82
2023-05-21T16:56:39.180Z,23.67
2023-05-21T16:58:26.345Z,23.49
2023-05-21T17:00:03.009Z,23.34
2023-05-21T17:01:48.405Z,23.22
2023-05-21T17:03:10.206Z,23.10
2023-05-21T17:04:46.123Z,22.98
2023-05-21T17:06:17.383Z,22.89
2023-05-21T17:07:48.560Z,22.79
2023-05-21T17:09:24.225Z,22.70
2023-05-21T17:10:58.307Z,22.60
2023-05-21T17:12:32.043Z,22.52
2023-05-21T17:14:05.729Z,22.43
2023-05-21T17:15:39.659Z,22.34
2023-05-21T17:17:24.794Z,22.25
2023-05-21T17:19:08.058Z,22.16
2023-05-21T17:20:43.765Z,22.07
2023-05-21T17:22:17.423Z,21.99
2023-05-21T17:26:10.461Z,21.83
2023-05-21T17:27:41.647Z,21.76
2023-05-21T17:29:26.701Z,21.67
2023-05-21T17:31:03.245Z,21.59
2023-05-21T17:32:48.176Z,21.53
2023-05-21T17:34:36.377Z,21.47
2023-05-21T17:36:24.470Z,21.40
2023-05-21T17:38:06.828Z,21.33
2023-05-21T17:39:40.336Z,21.25
2023-05-21T17:41:02.204Z,21.20
2023-05-21T17:42:47.137Z,21.13
2023-05-21T17:44:33.324Z,21.06
2023-05-21T17:46:13.824Z,21.00
2023-05-21T17:48:07.196Z,20.93
2023-05-21T17:49:52.564Z,20.84
2023-05-21T17:51:38.076Z,20.76
2023-05-21T17:53:14.054Z,20.69
2023-05-21T17:54:35.991Z,20.63
2023-05-21T17:56:25.235Z,20.57
2023-05-21T17:57:59.078Z,20.50
2023-05-21T17:59:33.263Z,20.43
2023-05-21T18:01:06.772Z,20.37
2023-05-21T18:02:35.973Z,20.30
2023-05-21T18:04:10.800Z,20.23
2023-05-21T18:05:33.004Z,20.18
2023-05-21T18:07:02.516Z,20.12
2023-05-21T18:08:24.654Z,20.06
2023-05-21T18:10:09.885Z,19.99
2023-05-21T18:12:03.037Z,19.92
2023-05-21T18:13:36.801Z,19.85
2023-05-21T18:15:13.176Z,19.79
2023-05-21T18:16:58.135Z,19.72
2023-05-21T18:18:21.509Z,19.67
2023-05-21T18:19:54.884Z,19.61
2023-05-21T18:21:30.724Z,19.55
2023-05-21T18:23:15.769Z,19.49
2023-05-21T18:24:51.245Z,19.41
2023-05-21T18:26:32.817Z,19.34
2023-05-21T18:28:10.606Z,19.28
2023-05-21T18:29:51.195Z,19.19
2023-05-21T18:31:34.141Z,19.12
2023-05-21T18:33:04.726Z,19.05
2023-05-21T18:34:49.370Z,18.98
2023-05-21T18:36:22.284Z,18.92
2023-05-21T18:37:51.248Z,18.85
2023-05-21T18:39:13.038Z,18.79
2023-05-21T18:40:46.967Z,18.73
2023-05-21T18:42:32.156Z,18.67
2023-05-21T18:44:17.671Z,18.61
2023-05-21T18:45:49.248Z,18.53
2023-05-21T18:47:11.531Z,18.47
2023-05-21T18:49:05.083Z,18.39
2023-05-21T18:50:31.745Z,18.31
2023-05-21T18:52:07.803Z,18.23
2023-05-21T18:53:29.431Z,18.17
2023-05-21T18:57:22.181Z,18.01
2023-05-21T18:59:07.832Z,17.94
2023-05-21T19:00:43.310Z,17.87
2023-05-21T19:02:29.714Z,17.79
2023-05-21T19:03:53.942Z,17.73
2023-05-21T19:05:38.996Z,17.68
2023-05-21T19:07:20.128Z,17.62
2023-05-21T19:08:44.703Z,17.57
2023-05-21T19:10:06.699Z,17.52
2023-05-21T19:11:35.830Z,17.49
2023-05-21T19:13:03.390Z,17.45
2023-05-21T19:14:38.557Z,17.40
2023-05-21T19:16:11.425Z,17.37
2023-05-21T19:17:35.019Z,17.33
2023-05-21T19:19:08.082Z,17.27
2023-05-21T19:20:41.823Z,17.23
2023-05-21T19:22:29.094Z,17.18
2023-05-21T19:24:06.347Z,17.12
2023-05-21T19:25:35.639Z,17.07
2023-05-21T19:27:12.277Z,17.03
2023-05-21T19:28:52.946Z,16.96
2023-05-21T19:30:26.927Z,16.90
2023-05-21T19:31:54.921Z,16.85
2023-05-21T19:33:28.641Z,16.80
2023-05-21T19:35:11.106Z,16.75
2023-05-21T19:36:53.324Z,16.69
2023-05-21T19:38:27.923Z,16.63
2023-05-21T19:39:57.044Z,16.57
2023-05-21T19:41:22.975Z,16.54
2023-05-21T19:43:04.719Z,16.48
2023-05-21T19:44:40.827Z,16.43
2023-05-21T19:46:20.058Z,16.38
2023-05-21T19:47:46.209Z,16.33
2023-05-21T19:49:33.693Z,16.29
2023-05-21T19:51:10.408Z,16.24
2023-05-21T19:52:44.145Z,16.19
2023-05-21T19:54:18.657Z,16.14
2023-05-21T19:56:05.657Z,16.10
2023-05-21T19:57:39.795Z,16.06
2023-05-21T19:59:26.336Z,16.03
2023-05-21T20:00:57.788Z,15.99
2023-05-21T20:02:28.719Z,15.96
2023-05-21T20:04:02.721Z,15.93
2023-05-21T20:05:36.110Z,15.89
2023-05-21T20:06:58.011Z,15.87
2023-05-21T20:08:20.593Z,15.84
2023-05-21T20:09:56.140Z,15.82
2023-05-21T20:11:29.512Z,15.80
2023-05-21T20:13:03.108Z,15.79
2023-05-21T20:14:33.562Z,15.77
2023-05-21T20:16:16.130Z,15.77
2023-05-21T20:17:42.913Z,15.76
2023-05-21T20:19:22.570Z,15.74
2023-05-21T20:20:54.037Z,15.74
2023-05-21T20:22:30.804Z,15.73
2023-05-21T20:23:52.427Z,15.71
2023-05-21T20:25:28.197Z,15.70
2023-05-21T20:26:49.916Z,15.67
2023-05-21T20:28:14.085Z,15.66
2023-05-21T20:30:09.089Z,15.63
2023-05-21T20:32:03.107Z,15.61
2023-05-21T20:33:41.086Z,15.59
2023-05-21T20:35:05.327Z,15.58
2023-05-21T20:36:36.869Z,15.56
2023-05-21T20:38:06.233Z,15.54
2023-05-21T20:39:30.701Z,15.52
2023-05-21T20:40:54.825Z,15.50
2023-05-21T20:42:36.638Z,15.48
2023-05-21T20:44:10.118Z,15.46
2023-05-21T20:45:45.148Z,15.45
2023-05-21T20:47:11.910Z,15.43
2023-05-21T20:48:45.637Z,15.41
2023-05-21T20:50:07.347Z,15.39
2023-05-21T20:51:29.021Z,15.38
2023-05-21T20:53:03.826Z,15.36
2023-05-21T20:54:32.987Z,15.34
2023-05-21T20:56:02.287Z,15.32
2023-05-21T20:57:36.032Z,15.31